createdAt,value
2024-01-05T00:01:03.543Z,2.608
2024-01-05T00:06:03.028Z,1.759
2024-01-05T00:10:59.817Z,2.208
2024-01-05T00:16:00.574Z,0.518
2024-01-05T00:20:58.642Z,1.688
2024-01-05T00:26:02.474Z,0.649
2024-01-05T00:30:59.170Z,0.622
2024-01-05T00:35:59.706Z,0.649
2024-01-05T00:41:01.193Z,0.649
2024-01-05T00:46:05.023Z,1.596
2024-01-05T00:51:01.526Z,0.812
2024-01-05T00:55:55.924Z,1.137
2024-01-05T01:01:05.513Z,0.135
2024-01-05T01:05:52.975Z,1.353
2024-01-05T01:10:54.450Z,0.812
2024-01-05T01:15:56.478Z,0.974
2024-01-05T01:20:56.044Z,1.629
2024-01-05T01:25:51.492Z,0.974
2024-01-05T01:30:53.809Z,0
2024-01-05T01:35:52.336Z,1.332
2024-01-05T01:40:49.148Z,0.876
2024-01-05T01:45:52.815Z,0
2024-01-05T01:50:50.306Z,0.649
2024-01-05T01:55:51.447Z,0.947
2024-01-05T02:00:54.720Z,1.336
2024-01-05T02:05:54.754Z,0.843
2024-01-05T02:10:51.594Z,0.487
2024-01-05T02:15:52.082Z,1.299
2024-01-05T02:20:53.840Z,1.168
2024-01-05T02:25:50.639Z,0.784
2024-01-05T02:30:53.854Z,0.487
2024-01-05T02:35:52.656Z,1.9
2024-01-05T02:40:52.198Z,1.233
2024-01-05T02:45:52.540Z,0.812
2024-01-05T02:50:54.992Z,1.633
2024-01-05T02:55:55.034Z,0.162
2024-01-05T03:00:55.428Z,0.843
2024-01-05T03:05:54.790Z,0.649
2024-01-05T03:10:51.442Z,1.731
2024-01-05T03:15:54.500Z,1.921
2024-01-05T03:20:51.807Z,3.193
2024-01-05T03:25:51.930Z,4.933
2024-01-05T03:31:00.384Z,4.927
2024-01-05T03:36:03.723Z,6.421
2024-01-05T03:41:03.754Z,4.147
2024-01-05T03:46:00.816Z,6.661
2024-01-05T03:51:07.351Z,3.899
2024-01-05T03:56:06.548Z,3.155
2024-01-05T04:01:05.600Z,2.414
2024-01-05T04:05:58.748Z,4.244
2024-01-05T04:10:52.383Z,3.953
2024-01-05T04:15:54.695Z,3.33
2024-01-05T04:20:51.839Z,2.225
2024-01-05T04:25:52.582Z,3.416
2024-01-05T04:30:52.037Z,2.571
2024-01-05T04:35:56.370Z,0.919
2024-01-05T04:40:55.561Z,1.137
2024-01-05T04:45:51.777Z,0.947
2024-01-05T04:50:55.199Z,1.786
2024-01-05T04:55:51.879Z,5.961
2024-01-05T05:00:51.792Z,3.514
2024-01-05T05:05:54.306Z,2.056
2024-01-05T05:10:52.737Z,2.436
2024-01-05T05:15:53.999Z,1.85
2024-01-05T05:20:51.992Z,2.49
2024-01-05T05:25:54.837Z,1.494
2024-01-05T05:30:54.484Z,2.999
2024-01-05T05:35:55.131Z,3.151
2024-01-05T05:40:51.872Z,1.299
2024-01-05T05:45:51.631Z,0.324
2024-01-05T05:50:52.980Z,1.461
2024-01-05T05:55:53.902Z,8.7
2024-01-05T06:00:58.669Z,0.812
2024-01-05T06:05:51.868Z,2.002
2024-01-05T06:10:52.497Z,2.111
2024-01-05T06:15:54.628Z,1.796
2024-01-05T06:20:54.123Z,1.764
2024-01-05T06:25:56.220Z,4.396
2024-01-05T06:30:57.852Z,1.461
2024-01-05T06:35:55.669Z,3.058
2024-01-05T06:40:56.359Z,4.444
2024-01-05T06:46:35.525Z,3.448
2024-01-05T06:50:54.333Z,2.274
2024-01-05T06:55:55.196Z,3.01
2024-01-05T07:00:56.631Z,11.292
2024-01-05T07:05:56.629Z,5.008
2024-01-05T07:10:55.581Z,5.187
2024-01-05T07:15:57.107Z,3.546
2024-01-05T07:20:55.281Z,4.434
2024-01-05T07:25:58.053Z,4.402
2024-01-05T07:30:56.779Z,3.161
2024-01-05T07:35:58.059Z,5.556
2024-01-05T07:41:00.204Z,6.513
2024-01-05T07:45:58.533Z,6.255
2024-01-05T07:50:58.260Z,6.361
2024-01-05T07:55:56.144Z,3.67
2024-01-05T08:01:02.414Z,6.401
2024-01-05T08:05:56.614Z,5.924
2024-01-05T08:10:59.411Z,4.977
2024-01-05T08:15:58.260Z,6.238
2024-01-05T08:20:59.734Z,4.402
2024-01-05T08:25:58.372Z,5.019
2024-01-05T08:31:00.520Z,4.25
2024-01-05T08:36:00.877Z,7.148
2024-01-05T08:40:59.508Z,4.26
2024-01-05T08:45:58.159Z,12.171
2024-01-05T08:50:57.828Z,5.654
2024-01-05T08:55:56.046Z,5.225
2024-01-05T09:01:02.333Z,5.641
2024-01-05T09:05:57.483Z,6.361
2024-01-05T09:10:56.665Z,6.069
2024-01-05T09:15:55.219Z,7.419
2024-01-05T09:20:59.824Z,6.882
2024-01-05T09:25:59.320Z,7.099
2024-01-05T09:30:58.794Z,3.561
2024-01-05T09:35:58.591Z,4.332
2024-01-05T09:41:00.110Z,2.544
2024-01-05T09:45:57.577Z,4.272
2024-01-05T09:50:56.961Z,3.037
2024-01-05T09:55:59.009Z,2.31
2024-01-05T10:00:57.860Z,1.791
2024-01-05T10:05:57.006Z,2.608
2024-01-05T10:10:57.423Z,2.056
2024-01-05T10:15:56.978Z,2.246
2024-01-05T10:20:57.655Z,2.631
2024-01-05T10:25:58.336Z,3.622
2024-01-05T10:31:01.723Z,2.478
2024-01-05T10:35:55.712Z,3.546
2024-01-05T10:40:56.675Z,1.624
2024-01-05T10:45:59.662Z,2.111
2024-01-05T10:50:54.816Z,1.467
2024-01-05T10:55:55.680Z,2.826
2024-01-05T11:00:58.534Z,2.961
2024-01-05T11:05:56.533Z,2.895
2024-01-05T11:10:57.043Z,1.624
2024-01-05T11:15:55.316Z,1.396
2024-01-05T11:21:00.970Z,1.467
2024-01-05T11:25:58.255Z,3.253
2024-01-05T11:30:58.640Z,2.64
2024-01-05T11:35:56.156Z,8.1
2024-01-05T11:40:57.189Z,11.415
2024-01-05T11:45:59.921Z,9.228
2024-01-05T11:50:55.483Z,12.039
2024-01-05T11:55:56.234Z,12.552
2024-01-05T12:00:56.772Z,12.937
2024-01-05T12:10:57.884Z,15.831
2024-01-05T12:20:55.689Z,14.373
2024-01-05T12:25:56.446Z,13.984
2024-01-05T12:30:57.124Z,13.262
2024-01-05T12:35:56.973Z,13.137
2024-01-05T12:40:59.985Z,11.41
2024-01-05T12:45:56.123Z,16.827
2024-01-05T12:50:56.519Z,12.537
2024-01-05T12:55:55.784Z,14.947
2024-01-05T13:00:58.130Z,17.103
2024-01-05T13:05:56.708Z,11.822
2024-01-05T13:10:54.843Z,17.158
2024-01-05T13:15:56.572Z,15.862
2024-01-05T13:20:55.668Z,12.802
2024-01-05T13:25:56.757Z,18.598
2024-01-05T13:31:00.498Z,17.407
2024-01-05T13:35:58.472Z,15.05
2024-01-05T13:40:55.913Z,16.41
2024-01-05T13:45:59.258Z,18.176
2024-01-05T13:50:56.914Z,18.1
2024-01-05T13:56:02.666Z,19.275
2024-01-05T14:00:59.298Z,21.067
2024-01-05T14:05:56.271Z,17.656
2024-01-05T14:10:57.937Z,15.863
2024-01-05T14:15:56.035Z,19.687
2024-01-05T14:20:59.318Z,18.794
2024-01-05T14:26:03.032Z,16.437
2024-01-05T14:30:57.454Z,18.973
2024-01-05T14:36:01.212Z,20.514
2024-01-05T14:40:59.594Z,16.214
2024-01-05T14:45:58.753Z,16.698
2024-01-05T14:50:55.888Z,15.716
2024-01-05T14:55:54.262Z,15.657
2024-01-05T15:00:58.143Z,17.022
2024-01-05T15:05:53.137Z,16.93
2024-01-05T15:10:54.882Z,18.75
2024-01-05T15:15:55.690Z,17.255
2024-01-05T15:20:54.320Z,16.913
2024-01-05T15:25:53.909Z,15.809
2024-01-05T15:30:54.930Z,23.981
2024-01-05T15:35:54.093Z,17.894
2024-01-05T15:40:53.034Z,20.901
2024-01-05T15:45:57.554Z,20.354
2024-01-05T15:50:52.826Z,16.111
2024-01-05T15:56:01.963Z,18.82
2024-01-05T16:00:58.785Z,22.504
2024-01-05T16:05:55.177Z,23.613
2024-01-05T16:10:56.101Z,21.864
2024-01-05T16:15:54.517Z,19.892
2024-01-05T16:20:50.810Z,26.338
2024-01-05T16:25:51.135Z,21.659
2024-01-05T16:30:53.207Z,26.896
2024-01-05T16:35:51.942Z,24.512
2024-01-05T16:40:54.636Z,22.536
2024-01-05T16:45:58.778Z,29.62
2024-01-05T16:50:51.171Z,29.193
2024-01-05T16:55:54.623Z,21.388
2024-01-05T17:00:55.873Z,25.679
2024-01-05T17:05:57.426Z,22.114
2024-01-05T17:10:53.966Z,20.732
2024-01-05T17:15:53.644Z,22.703
2024-01-05T17:20:51.776Z,23.332
2024-01-05T17:25:53.169Z,22.784
2024-01-05T17:30:52.880Z,25.321
2024-01-05T17:35:50.356Z,24.762
2024-01-05T17:40:49.617Z,30.327
2024-01-05T17:45:53.761Z,22.714
2024-01-05T17:50:53.709Z,23.677
2024-01-05T17:55:55.055Z,29.816
2024-01-05T18:00:59.453Z,21.881
2024-01-05T18:05:51.326Z,27.784
2024-01-05T18:10:52.363Z,28.58
2024-01-05T18:15:51.673Z,22.758
2024-01-05T18:20:56.341Z,24.81
2024-01-05T18:25:55.898Z,25.385
2024-01-05T18:30:56.734Z,25.295
2024-01-05T18:35:51.858Z,26.86
2024-01-05T18:40:51.721Z,22.855
2024-01-05T18:45:52.270Z,30.038
2024-01-05T18:50:52.521Z,28.012
2024-01-05T18:56:01.321Z,28.055
2024-01-05T19:00:51.032Z,26.539
2024-01-05T19:05:51.747Z,27.871
2024-01-05T19:10:57.238Z,23.542
2024-01-05T19:15:54.229Z,24.843
2024-01-05T19:20:53.231Z,23.241
2024-01-05T19:25:54.307Z,25.666
2024-01-05T19:30:53.145Z,25.899
2024-01-05T19:35:55.999Z,24.431
2024-01-05T19:40:52.173Z,27.475
2024-01-05T19:45:58.294Z,22.032
2024-01-05T19:50:55.772Z,26.159
2024-01-05T19:55:53.702Z,26.794
2024-01-05T20:00:51.308Z,24.08
2024-01-05T20:05:50.361Z,23.283
2024-01-05T20:10:51.359Z,24.177
2024-01-05T20:16:02.081Z,25.104
2024-01-05T20:20:54.614Z,23.272
2024-01-05T20:25:58.303Z,27.784
2024-01-05T20:30:56.187Z,35.991
2024-01-05T20:35:53.850Z,27.189
2024-01-05T20:40:50.141Z,29.676
2024-01-05T20:45:52.756Z,28.082
2024-01-05T20:50:55.606Z,36.468
2024-01-05T20:55:55.021Z,24.102
2024-01-05T21:00:50.300Z,21.573
2024-01-05T21:05:52.637Z,21.121
2024-01-05T21:10:52.169Z,23.738
2024-01-05T21:16:00.605Z,21.496
2024-01-05T21:20:53.894Z,23.928
2024-01-05T21:25:52.560Z,24.838
2024-01-05T21:30:54.199Z,23.303
2024-01-05T21:35:51.741Z,19.427
2024-01-05T21:40:52.530Z,19.291
2024-01-05T21:45:56.394Z,17.584
2024-01-05T21:50:49.621Z,23.787
2024-01-05T21:55:55.646Z,29.22
2024-01-05T22:00:49.006Z,29.107
2024-01-05T22:05:46.893Z,25.878
2024-01-05T22:10:49.123Z,27.231
2024-01-05T22:15:53.321Z,22.704
2024-01-05T22:20:53.337Z,22.281
2024-01-05T22:25:52.643Z,22.954
2024-01-05T22:30:55.964Z,23.63
2024-01-05T22:35:54.103Z,27.768
2024-01-05T22:40:53.707Z,34.556
2024-01-05T22:45:53.167Z,25.126
2024-01-05T22:50:52.463Z,35.286
2024-01-05T22:55:56.428Z,31.917
2024-01-05T23:01:00.980Z,34.935
2024-01-05T23:05:56.029Z,29.794
2024-01-05T23:10:52.964Z,36.087
2024-01-05T23:15:56.917Z,32.973
2024-01-05T23:20:51.190Z,23.559
2024-01-05T23:25:52.082Z,31.3
2024-01-05T23:30:50.860Z,24.887
2024-01-05T23:35:48.592Z,24.654
2024-01-05T23:40:53.011Z,23.149
2024-01-05T23:45:48.437Z,22.736
2024-01-05T23:50:51.562Z,23.484
2024-01-05T23:55:50.969Z,28.06
